sensor_id;sensor_type;location;lat;lon;timestamp;temperature;humidity
6792;DHT22;3433;48.730;9.108;2022-07-30T00:02:29;18.90;97.10
6792;DHT22;3433;48.730;9.108;2022-07-30T00:05:18;18.90;97.10
6792;DHT22;3433;48.730;9.108;2022-07-30T00:08:05;18.90;97.20
6792;DHT22;3433;48.730;9.108;2022-07-30T00:10:53;19.00;97.10
6792;DHT22;3433;48.730;9.108;2022-07-30T00:13:40;19.00;97.40
6792;DHT22;3433;48.730;9.108;2022-07-30T00:16:27;19.00;97.40
6792;DHT22;3433;48.730;9.108;2022-07-30T00:19:15;19.00;97.30
6792;DHT22;3433;48.730;9.108;2022-07-30T00:22:03;19.10;97.30
6792;DHT22;3433;48.730;9.108;2022-07-30T00:24:51;19.20;97.30
6792;DHT22;3433;48.730;9.108;2022-07-30T00:27:38;19.20;97.20
6792;DHT22;3433;48.730;9.108;2022-07-30T00:30:25;19.30;97.40
6792;DHT22;3433;48.730;9.108;2022-07-30T00:33:13;19.40;97.40
6792;DHT22;3433;48.730;9.108;2022-07-30T00:36:00;19.40;97.40
6792;DHT22;3433;48.730;9.108;2022-07-30T00:38:49;19.40;97.20
6792;DHT22;3433;48.730;9.108;2022-07-30T00:41:51;19.40;97.40
6792;DHT22;3433;48.730;9.108;2022-07-30T00:44:38;19.50;97.30
6792;DHT22;3433;48.730;9.108;2022-07-30T00:47:26;19.50;97.50
6792;DHT22;3433;48.730;9.108;2022-07-30T00:50:14;19.60;97.20
6792;DHT22;3433;48.730;9.108;2022-07-30T00:53:01;19.60;97.30
6792;DHT22;3433;48.730;9.108;2022-07-30T00:55:50;19.60;97.10
6792;DHT22;3433;48.730;9.108;2022-07-30T00:58:37;19.70;97.20
6792;DHT22;3433;48.730;9.108;2022-07-30T01:01:24;19.70;96.90
6792;DHT22;3433;48.730;9.108;2022-07-30T01:04:12;19.70;97.30
6792;DHT22;3433;48.730;9.108;2022-07-30T01:06:59;19.70;97.30
6792;DHT22;3433;48.730;9.108;2022-07-30T01:09:46;19.80;97.10
6792;DHT22;3433;48.730;9.108;2022-07-30T01:12:36;19.80;97.10
6792;DHT22;3433;48.730;9.108;2022-07-30T01:15:24;19.80;97.00
6792;DHT22;3433;48.730;9.108;2022-07-30T01:18:13;19.80;97.10
6792;DHT22;3433;48.730;9.108;2022-07-30T01:21:08;19.80;97.10
6792;DHT22;3433;48.730;9.108;2022-07-30T01:24:01;19.70;97.70
6792;DHT22;3433;48.730;9.108;2022-07-30T01:26:55;19.80;97.10
6792;DHT22;3433;48.730;9.108;2022-07-30T01:29:44;19.70;97.00
6792;DHT22;3433;48.730;9.108;2022-07-30T01:32:34;19.70;96.90
6792;DHT22;3433;48.730;9.108;2022-07-30T01:35:24;19.70;96.90
6792;DHT22;3433;48.730;9.108;2022-07-30T01:38:12;19.70;96.90
6792;DHT22;3433;48.730;9.108;2022-07-30T01:41:02;19.70;97.00
6792;DHT22;3433;48.730;9.108;2022-07-30T01:43:52;19.70;97.00
6792;DHT22;3433;48.730;9.108;2022-07-30T01:46:40;19.70;97.10
6792;DHT22;3433;48.730;9.108;2022-07-30T01:49:28;19.70;97.20
6792;DHT22;3433;48.730;9.108;2022-07-30T01:52:17;19.60;97.40
6792;DHT22;3433;48.730;9.108;2022-07-30T01:55:07;19.60;97.10
6792;DHT22;3433;48.730;9.108;2022-07-30T01:57:56;19.60;97.30
6792;DHT22;3433;48.730;9.108;2022-07-30T02:00:48;19.60;97.10
6792;DHT22;3433;48.730;9.108;2022-07-30T02:03:36;19.60;97.10
6792;DHT22;3433;48.730;9.108;2022-07-30T02:06:31;19.50;97.10
6792;DHT22;3433;48.730;9.108;2022-07-30T02:09:23;19.50;97.10
6792;DHT22;3433;48.730;9.108;2022-07-30T02:12:14;19.50;97.10
6792;DHT22;3433;48.730;9.108;2022-07-30T02:15:18;19.40;97.10
6792;DHT22;3433;48.730;9.108;2022-07-30T02:18:16;19.30;97.00
6792;DHT22;3433;48.730;9.108;2022-07-30T02:21:05;19.30;97.00
6792;DHT22;3433;48.730;9.108;2022-07-30T02:23:54;19.30;97.10
6792;DHT22;3433;48.730;9.108;2022-07-30T02:26:43;19.20;97.10
6792;DHT22;3433;48.730;9.108;2022-07-30T02:29:36;19.20;97.10
6792;DHT22;3433;48.730;9.108;2022-07-30T02:32:25;19.10;97.10
6792;DHT22;3433;48.730;9.108;2022-07-30T02:35:19;19.10;97.10
6792;DHT22;3433;48.730;9.108;2022-07-30T02:38:08;19.10;97.10
6792;DHT22;3433;48.730;9.108;2022-07-30T02:40:58;19.10;97.20
6792;DHT22;3433;48.730;9.108;2022-07-30T02:43:47;19.10;97.30
6792;DHT22;3433;48.730;9.108;2022-07-30T02:46:37;19.00;97.10
6792;DHT22;3433;48.730;9.108;2022-07-30T02:49:26;19.10;97.30
6792;DHT22;3433;48.730;9.108;2022-07-30T02:52:16;19.00;97.30
6792;DHT22;3433;48.730;9.108;2022-07-30T02:55:05;19.00;97.30
6792;DHT22;3433;48.730;9.108;2022-07-30T02:57:53;19.00;97.40
6792;DHT22;3433;48.730;9.108;2022-07-30T03:00:41;18.90;97.20
6792;DHT22;3433;48.730;9.108;2022-07-30T03:03:30;18.90;97.30
6792;DHT22;3433;48.730;9.108;2022-07-30T03:06:18;18.90;97.20
6792;DHT22;3433;48.730;9.108;2022-07-30T03:09:09;18.80;97.20
6792;DHT22;3433;48.730;9.108;2022-07-30T03:11:56;18.80;97.30
6792;DHT22;3433;48.730;9.108;2022-07-30T03:14:44;18.80;97.20
6792;DHT22;3433;48.730;9.108;2022-07-30T03:17:36;18.70;97.10
6792;DHT22;3433;48.730;9.108;2022-07-30T03:20:26;18.70;97.20
6792;DHT22;3433;48.730;9.108;2022-07-30T03:23:15;18.60;97.10
6792;DHT22;3433;48.730;9.108;2022-07-30T03:26:07;18.60;97.20
6792;DHT22;3433;48.730;9.108;2022-07-30T03:28:55;18.50;97.10
6792;DHT22;3433;48.730;9.108;2022-07-30T03:31:43;18.50;97.10
6792;DHT22;3433;48.730;9.108;2022-07-30T03:34:31;18.40;97.10
6792;DHT22;3433;48.730;9.108;2022-07-30T03:37:19;18.40;97.10
6792;DHT22;3433;48.730;9.108;2022-07-30T03:40:08;18.30;97.00
6792;DHT22;3433;48.730;9.108;2022-07-30T03:42:57;18.30;97.00
6792;DHT22;3433;48.730;9.108;2022-07-30T03:45:46;18.30;97.00
6792;DHT22;3433;48.730;9.108;2022-07-30T03:48:34;18.20;97.00
6792;DHT22;3433;48.730;9.108;2022-07-30T03:51:22;18.10;97.00
6792;DHT22;3433;48.730;9.108;2022-07-30T03:54:10;18.10;97.10
6792;DHT22;3433;48.730;9.108;2022-07-30T03:56:58;18.10;97.10
6792;DHT22;3433;48.730;9.108;2022-07-30T03:59:47;18.10;97.10
6792;DHT22;3433;48.730;9.108;2022-07-30T04:02:40;18.10;97.10
6792;DHT22;3433;48.730;9.108;2022-07-30T04:05:28;18.00;97.10
6792;DHT22;3433;48.730;9.108;2022-07-30T04:08:15;18.00;97.10
6792;DHT22;3433;48.730;9.108;2022-07-30T04:11:03;17.90;97.00
6792;DHT22;3433;48.730;9.108;2022-07-30T04:13:50;17.90;97.10
6792;DHT22;3433;48.730;9.108;2022-07-30T04:16:45;17.90;97.10
6792;DHT22;3433;48.730;9.108;2022-07-30T04:19:40;17.90;97.20
6792;DHT22;3433;48.730;9.108;2022-07-30T04:22:31;17.90;97.20
6792;DHT22;3433;48.730;9.108;2022-07-30T04:25:20;17.90;97.20
6792;DHT22;3433;48.730;9.108;2022-07-30T04:28:09;17.90;97.20
6792;DHT22;3433;48.730;9.108;2022-07-30T04:30:57;17.80;97.40
6792;DHT22;3433;48.730;9.108;2022-07-30T04:33:46;17.90;97.40
6792;DHT22;3433;48.730;9.108;2022-07-30T04:36:34;17.80;97.40
6792;DHT22;3433;48.730;9.108;2022-07-30T04:39:21;17.80;97.30
6792;DHT22;3433;48.730;9.108;2022-07-30T04:42:09;17.80;97.40
6792;DHT22;3433;48.730;9.108;2022-07-30T04:44:57;17.80;97.50
6792;DHT22;3433;48.730;9.108;2022-07-30T04:47:45;17.80;97.50
6792;DHT22;3433;48.730;9.108;2022-07-30T04:50:35;17.80;97.50
6792;DHT22;3433;48.730;9.108;2022-07-30T04:53:25;17.80;97.50
6792;DHT22;3433;48.730;9.108;2022-07-30T04:56:14;17.80;97.60
6792;DHT22;3433;48.730;9.108;2022-07-30T04:59:02;17.80;97.70
6792;DHT22;3433;48.730;9.108;2022-07-30T05:01:51;17.80;97.70
6792;DHT22;3433;48.730;9.108;2022-07-30T05:04:39;17.90;97.90
6792;DHT22;3433;48.730;9.108;2022-07-30T05:07:29;17.90;97.90
6792;DHT22;3433;48.730;9.108;2022-07-30T05:10:18;18.00;98.00
6792;DHT22;3433;48.730;9.108;2022-07-30T05:13:10;18.00;98.00
6792;DHT22;3433;48.730;9.108;2022-07-30T05:15:58;18.10;98.10
6792;DHT22;3433;48.730;9.108;2022-07-30T05:18:45;18.10;98.00
6792;DHT22;3433;48.730;9.108;2022-07-30T05:21:32;18.20;98.10
6792;DHT22;3433;48.730;9.108;2022-07-30T05:24:21;18.30;98.20
6792;DHT22;3433;48.730;9.108;2022-07-30T05:27:08;18.40;98.30
6792;DHT22;3433;48.730;9.108;2022-07-30T05:29:56;18.50;98.40
6792;DHT22;3433;48.730;9.108;2022-07-30T05:32:43;18.60;98.20
6792;DHT22;3433;48.730;9.108;2022-07-30T05:35:30;18.80;98.30
6792;DHT22;3433;48.730;9.108;2022-07-30T05:38:18;18.90;98.30
6792;DHT22;3433;48.730;9.108;2022-07-30T05:41:07;19.00;98.30
6792;DHT22;3433;48.730;9.108;2022-07-30T05:43:55;19.20;98.30
6792;DHT22;3433;48.730;9.108;2022-07-30T05:46:42;19.30;98.30
6792;DHT22;3433;48.730;9.108;2022-07-30T05:49:30;19.50;98.30
6792;DHT22;3433;48.730;9.108;2022-07-30T05:52:17;19.60;98.30
6792;DHT22;3433;48.730;9.108;2022-07-30T05:55:06;19.80;98.20
6792;DHT22;3433;48.730;9.108;2022-07-30T05:57:54;19.80;98.10
6792;DHT22;3433;48.730;9.108;2022-07-30T06:00:42;20.00;98.00
6792;DHT22;3433;48.730;9.108;2022-07-30T06:03:29;20.10;97.90
6792;DHT22;3433;48.730;9.108;2022-07-30T06:06:17;20.10;97.60
6792;DHT22;3433;48.730;9.108;2022-07-30T06:09:04;20.10;97.30
6792;DHT22;3433;48.730;9.108;2022-07-30T06:11:51;20.40;97.50
6792;DHT22;3433;48.730;9.108;2022-07-30T06:14:40;20.50;97.40
6792;DHT22;3433;48.730;9.108;2022-07-30T06:17:27;20.30;96.70
6792;DHT22;3433;48.730;9.108;2022-07-30T06:20:16;20.50;97.10
6792;DHT22;3433;48.730;9.108;2022-07-30T06:23:04;20.70;97.30
6792;DHT22;3433;48.730;9.108;2022-07-30T06:25:51;20.80;97.20
6792;DHT22;3433;48.730;9.108;2022-07-30T06:28:39;20.90;97.20
6792;DHT22;3433;48.730;9.108;2022-07-30T06:31:28;21.00;97.10
6792;DHT22;3433;48.730;9.108;2022-07-30T06:34:15;21.20;97.30
6792;DHT22;3433;48.730;9.108;2022-07-30T06:37:02;21.30;97.10
6792;DHT22;3433;48.730;9.108;2022-07-30T06:39:50;21.40;96.80
6792;DHT22;3433;48.730;9.108;2022-07-30T06:42:37;21.50;96.80
6792;DHT22;3433;48.730;9.108;2022-07-30T06:45:24;21.70;96.60
6792;DHT22;3433;48.730;9.108;2022-07-30T06:48:13;21.90;96.90
6792;DHT22;3433;48.730;9.108;2022-07-30T06:51:01;22.00;96.00
6792;DHT22;3433;48.730;9.108;2022-07-30T06:53:48;22.10;96.20
6792;DHT22;3433;48.730;9.108;2022-07-30T06:56:35;22.20;96.20
6792;DHT22;3433;48.730;9.108;2022-07-30T06:59:23;22.30;95.60
6792;DHT22;3433;48.730;9.108;2022-07-30T07:02:12;22.40;95.50
6792;DHT22;3433;48.730;9.108;2022-07-30T07:05:01;22.50;95.00
6792;DHT22;3433;48.730;9.108;2022-07-30T07:07:48;22.50;94.60
6792;DHT22;3433;48.730;9.108;2022-07-30T07:10:35;22.70;94.70
6792;DHT22;3433;48.730;9.108;2022-07-30T07:13:23;22.70;94.60
6792;DHT22;3433;48.730;9.108;2022-07-30T07:16:10;22.90;94.50
6792;DHT22;3433;48.730;9.108;2022-07-30T07:18:58;23.10;94.90
6792;DHT22;3433;48.730;9.108;2022-07-30T07:21:46;23.20;94.70
6792;DHT22;3433;48.730;9.108;2022-07-30T07:24:33;23.40;94.80
6792;DHT22;3433;48.730;9.108;2022-07-30T07:27:21;23.50;94.60
6792;DHT22;3433;48.730;9.108;2022-07-30T07:30:09;23.70;94.60
6792;DHT22;3433;48.730;9.108;2022-07-30T07:32:56;23.80;93.50
6792;DHT22;3433;48.730;9.108;2022-07-30T07:35:43;23.90;93.70
6792;DHT22;3433;48.730;9.108;2022-07-30T07:38:32;24.10;93.70
6792;DHT22;3433;48.730;9.108;2022-07-30T07:41:19;24.20;91.40
6792;DHT22;3433;48.730;9.108;2022-07-30T07:44:07;24.30;93.40
6792;DHT22;3433;48.730;9.108;2022-07-30T07:46:54;24.50;92.50
6792;DHT22;3433;48.730;9.108;2022-07-30T07:49:41;24.60;92.30
6792;DHT22;3433;48.730;9.108;2022-07-30T07:52:28;24.70;92.30
6792;DHT22;3433;48.730;9.108;2022-07-30T07:55:17;24.80;92.10
6792;DHT22;3433;48.730;9.108;2022-07-30T07:58:04;24.90;91.10
6792;DHT22;3433;48.730;9.108;2022-07-30T08:00:52;25.00;90.90
6792;DHT22;3433;48.730;9.108;2022-07-30T08:03:39;25.00;90.70
6792;DHT22;3433;48.730;9.108;2022-07-30T08:06:26;25.20;91.50
6792;DHT22;3433;48.730;9.108;2022-07-30T08:09:14;25.30;91.00
6792;DHT22;3433;48.730;9.108;2022-07-30T08:12:03;25.20;85.70
6792;DHT22;3433;48.730;9.108;2022-07-30T08:14:50;25.40;90.60
6792;DHT22;3433;48.730;9.108;2022-07-30T08:17:39;25.60;90.20
6792;DHT22;3433;48.730;9.108;2022-07-30T08:20:27;25.60;90.30
6792;DHT22;3433;48.730;9.108;2022-07-30T08:23:14;25.50;88.10
6792;DHT22;3433;48.730;9.108;2022-07-30T08:26:01;25.70;86.60
6792;DHT22;3433;48.730;9.108;2022-07-30T08:28:50;25.90;88.20
6792;DHT22;3433;48.730;9.108;2022-07-30T08:31:37;26.10;85.30
6792;DHT22;3433;48.730;9.108;2022-07-30T08:34:25;26.30;85.50
6792;DHT22;3433;48.730;9.108;2022-07-30T08:39:40;26.40;87.00
6792;DHT22;3433;48.730;9.108;2022-07-30T08:42:28;26.40;85.80
6792;DHT22;3433;48.730;9.108;2022-07-30T08:45:17;26.60;82.20
6792;DHT22;3433;48.730;9.108;2022-07-30T08:48:07;26.90;81.40
6792;DHT22;3433;48.730;9.108;2022-07-30T08:50:57;26.70;84.90
6792;DHT22;3433;48.730;9.108;2022-07-30T08:53:45;26.60;84.70
6792;DHT22;3433;48.730;9.108;2022-07-30T08:56:33;26.60;84.20
6792;DHT22;3433;48.730;9.108;2022-07-30T08:59:22;26.70;84.30
6792;DHT22;3433;48.730;9.108;2022-07-30T09:02:11;26.50;82.60
6792;DHT22;3433;48.730;9.108;2022-07-30T09:04:58;26.80;83.20
6792;DHT22;3433;48.730;9.108;2022-07-30T09:07:46;27.10;84.80
6792;DHT22;3433;48.730;9.108;2022-07-30T09:10:33;27.00;80.20
6792;DHT22;3433;48.730;9.108;2022-07-30T09:13:25;26.90;83.00
6792;DHT22;3433;48.730;9.108;2022-07-30T09:16:20;26.70;82.50
6792;DHT22;3433;48.730;9.108;2022-07-30T09:19:14;26.80;77.60
6792;DHT22;3433;48.730;9.108;2022-07-30T09:22:02;26.70;79.10
6792;DHT22;3433;48.730;9.108;2022-07-30T09:24:49;26.60;81.80
6792;DHT22;3433;48.730;9.108;2022-07-30T09:27:44;26.60;81.80
6792;DHT22;3433;48.730;9.108;2022-07-30T09:30:47;26.80;80.70
6792;DHT22;3433;48.730;9.108;2022-07-30T09:33:37;26.80;80.60
6792;DHT22;3433;48.730;9.108;2022-07-30T09:36:30;27.10;78.50
6792;DHT22;3433;48.730;9.108;2022-07-30T09:43:04;26.90;75.90
6792;DHT22;3433;48.730;9.108;2022-07-30T09:45:54;27.00;76.70
6792;DHT22;3433;48.730;9.108;2022-07-30T09:48:43;27.30;78.80
6792;DHT22;3433;48.730;9.108;2022-07-30T09:51:38;27.70;78.00
6792;DHT22;3433;48.730;9.108;2022-07-30T09:54:44;27.80;76.40
6792;DHT22;3433;48.730;9.108;2022-07-30T09:57:31;27.80;76.90
6792;DHT22;3433;48.730;9.108;2022-07-30T10:00:21;28.00;73.40
6792;DHT22;3433;48.730;9.108;2022-07-30T10:03:17;28.10;74.50
6792;DHT22;3433;48.730;9.108;2022-07-30T10:06:05;28.30;73.40
6792;DHT22;3433;48.730;9.108;2022-07-30T10:08:54;28.50;76.10
6792;DHT22;3433;48.730;9.108;2022-07-30T10:11:41;28.80;74.20
6792;DHT22;3433;48.730;9.108;2022-07-30T10:14:31;28.50;73.00
6792;DHT22;3433;48.730;9.108;2022-07-30T10:17:19;28.10;75.30
6792;DHT22;3433;48.730;9.108;2022-07-30T10:20:08;27.90;75.50
6792;DHT22;3433;48.730;9.108;2022-07-30T10:22:56;27.80;76.20
6792;DHT22;3433;48.730;9.108;2022-07-30T10:25:46;28.00;74.30
6792;DHT22;3433;48.730;9.108;2022-07-30T10:28:34;28.30;74.20
6792;DHT22;3433;48.730;9.108;2022-07-30T10:31:25;28.10;74.80
6792;DHT22;3433;48.730;9.108;2022-07-30T10:34:13;27.90;77.20
6792;DHT22;3433;48.730;9.108;2022-07-30T10:37:03;28.00;75.40
6792;DHT22;3433;48.730;9.108;2022-07-30T10:39:55;28.30;70.80
6792;DHT22;3433;48.730;9.108;2022-07-30T10:46:10;29.00;72.40
6792;DHT22;3433;48.730;9.108;2022-07-30T10:49:08;28.70;72.00
6792;DHT22;3433;48.730;9.108;2022-07-30T10:51:55;28.60;72.80
6792;DHT22;3433;48.730;9.108;2022-07-30T10:54:43;28.40;74.70
6792;DHT22;3433;48.730;9.108;2022-07-30T10:57:32;28.60;73.70
6792;DHT22;3433;48.730;9.108;2022-07-30T11:00:20;28.90;72.90
6792;DHT22;3433;48.730;9.108;2022-07-30T11:03:11;29.10;71.30
6792;DHT22;3433;48.730;9.108;2022-07-30T11:06:23;29.50;70.40
6792;DHT22;3433;48.730;9.108;2022-07-30T11:09:33;29.60;65.10
6792;DHT22;3433;48.730;9.108;2022-07-30T11:12:51;30.00;65.80
6792;DHT22;3433;48.730;9.108;2022-07-30T11:15:54;30.10;68.30
6792;DHT22;3433;48.730;9.108;2022-07-30T11:19:06;29.70;69.30
6792;DHT22;3433;48.730;9.108;2022-07-30T11:22:26;29.60;70.30
6792;DHT22;3433;48.730;9.108;2022-07-30T11:25:38;29.70;68.30
6792;DHT22;3433;48.730;9.108;2022-07-30T11:28:37;29.40;70.50
6792;DHT22;3433;48.730;9.108;2022-07-30T11:31:31;29.40;69.60
6792;DHT22;3433;48.730;9.108;2022-07-30T11:34:28;30.00;70.40
6792;DHT22;3433;48.730;9.108;2022-07-30T11:37:15;30.10;70.40
6792;DHT22;3433;48.730;9.108;2022-07-30T11:40:10;29.90;70.20
6792;DHT22;3433;48.730;9.108;2022-07-30T11:43:21;30.00;67.20
6792;DHT22;3433;48.730;9.108;2022-07-30T11:46:11;30.20;64.30
6792;DHT22;3433;48.730;9.108;2022-07-30T11:49:01;30.40;61.80
6792;DHT22;3433;48.730;9.108;2022-07-30T11:51:53;30.60;61.70
6792;DHT22;3433;48.730;9.108;2022-07-30T11:54:50;30.90;66.20
6792;DHT22;3433;48.730;9.108;2022-07-30T11:57:38;30.50;62.10
6792;DHT22;3433;48.730;9.108;2022-07-30T12:00:33;30.90;65.50
6792;DHT22;3433;48.730;9.108;2022-07-30T12:03:21;31.10;65.00
6792;DHT22;3433;48.730;9.108;2022-07-30T12:06:14;31.10;63.10
6792;DHT22;3433;48.730;9.108;2022-07-30T12:09:03;31.00;59.90
6792;DHT22;3433;48.730;9.108;2022-07-30T12:11:50;31.20;64.00
6792;DHT22;3433;48.730;9.108;2022-07-30T12:14:37;31.60;63.20
6792;DHT22;3433;48.730;9.108;2022-07-30T12:17:40;31.70;63.20
6792;DHT22;3433;48.730;9.108;2022-07-30T12:20:28;31.90;59.80
6792;DHT22;3433;48.730;9.108;2022-07-30T12:23:17;32.10;58.80
6792;DHT22;3433;48.730;9.108;2022-07-30T12:26:05;32.10;60.70
6792;DHT22;3433;48.730;9.108;2022-07-30T12:28:54;32.20;63.20
6792;DHT22;3433;48.730;9.108;2022-07-30T12:31:42;32.50;64.50
6792;DHT22;3433;48.730;9.108;2022-07-30T12:34:30;32.60;62.80
6792;DHT22;3433;48.730;9.108;2022-07-30T12:37:18;32.40;61.30
6792;DHT22;3433;48.730;9.108;2022-07-30T12:40:10;32.70;61.30
6792;DHT22;3433;48.730;9.108;2022-07-30T12:42:57;32.80;62.90
6792;DHT22;3433;48.730;9.108;2022-07-30T12:45:45;32.80;61.80
6792;DHT22;3433;48.730;9.108;2022-07-30T12:48:32;32.90;60.60
6792;DHT22;3433;48.730;9.108;2022-07-30T12:51:21;32.40;63.80
6792;DHT22;3433;48.730;9.108;2022-07-30T12:54:17;32.50;59.50
6792;DHT22;3433;48.730;9.108;2022-07-30T12:57:06;32.10;60.40
6792;DHT22;3433;48.730;9.108;2022-07-30T13:00:01;31.70;60.80
6792;DHT22;3433;48.730;9.108;2022-07-30T13:02:50;31.40;59.80
6792;DHT22;3433;48.730;9.108;2022-07-30T13:05:42;31.60;59.60
6792;DHT22;3433;48.730;9.108;2022-07-30T13:08:46;32.00;62.00
6792;DHT22;3433;48.730;9.108;2022-07-30T13:11:38;32.20;60.20
6792;DHT22;3433;48.730;9.108;2022-07-30T13:14:27;32.60;61.90
6792;DHT22;3433;48.730;9.108;2022-07-30T13:17:17;32.60;59.90
6792;DHT22;3433;48.730;9.108;2022-07-30T13:20:05;32.70;58.60
6792;DHT22;3433;48.730;9.108;2022-07-30T13:22:53;32.80;59.00
6792;DHT22;3433;48.730;9.108;2022-07-30T13:25:40;32.90;57.70
6792;DHT22;3433;48.730;9.108;2022-07-30T13:28:27;32.80;56.80
6792;DHT22;3433;48.730;9.108;2022-07-30T13:31:18;32.70;59.20
6792;DHT22;3433;48.730;9.108;2022-07-30T13:34:05;32.70;57.60
6792;DHT22;3433;48.730;9.108;2022-07-30T13:36:53;32.80;58.00
6792;DHT22;3433;48.730;9.108;2022-07-30T13:39:40;32.70;56.10
6792;DHT22;3433;48.730;9.108;2022-07-30T13:42:27;33.10;58.70
6792;DHT22;3433;48.730;9.108;2022-07-30T13:45:15;33.30;57.70
6792;DHT22;3433;48.730;9.108;2022-07-30T13:48:04;33.20;59.80
6792;DHT22;3433;48.730;9.108;2022-07-30T13:50:52;32.90;59.00
6792;DHT22;3433;48.730;9.108;2022-07-30T13:53:39;33.10;58.60
6792;DHT22;3433;48.730;9.108;2022-07-30T13:56:26;32.70;57.70
6792;DHT22;3433;48.730;9.108;2022-07-30T13:59:13;32.00;55.90
6792;DHT22;3433;48.730;9.108;2022-07-30T14:02:01;32.30;60.00
6792;DHT22;3433;48.730;9.108;2022-07-30T14:04:51;32.40;56.10
6792;DHT22;3433;48.730;9.108;2022-07-30T14:07:38;32.60;59.20
6792;DHT22;3433;48.730;9.108;2022-07-30T14:10:26;32.70;57.60
6792;DHT22;3433;48.730;9.108;2022-07-30T14:13:14;33.00;58.40
6792;DHT22;3433;48.730;9.108;2022-07-30T14:16:01;32.70;55.20
6792;DHT22;3433;48.730;9.108;2022-07-30T14:18:48;32.30;58.60
6792;DHT22;3433;48.730;9.108;2022-07-30T14:21:37;32.30;56.20
6792;DHT22;3433;48.730;9.108;2022-07-30T14:24:25;31.90;55.30
6792;DHT22;3433;48.730;9.108;2022-07-30T14:27:12;31.50;56.50
6792;DHT22;3433;48.730;9.108;2022-07-30T14:30:00;31.50;60.00
6792;DHT22;3433;48.730;9.108;2022-07-30T14:32:47;31.50;60.40
6792;DHT22;3433;48.730;9.108;2022-07-30T14:35:34;31.20;60.90
6792;DHT22;3433;48.730;9.108;2022-07-30T14:38:23;31.10;60.60
6792;DHT22;3433;48.730;9.108;2022-07-30T14:41:10;30.80;60.90
6792;DHT22;3433;48.730;9.108;2022-07-30T14:43:57;30.50;61.20
6792;DHT22;3433;48.730;9.108;2022-07-30T14:46:45;30.30;59.60
6792;DHT22;3433;48.730;9.108;2022-07-30T14:49:32;30.10;61.10
6792;DHT22;3433;48.730;9.108;2022-07-30T14:52:19;29.90;60.40
6792;DHT22;3433;48.730;9.108;2022-07-30T14:55:09;29.90;61.00
6792;DHT22;3433;48.730;9.108;2022-07-30T14:57:56;29.70;60.40
6792;DHT22;3433;48.730;9.108;2022-07-30T15:00:43;29.80;61.10
6792;DHT22;3433;48.730;9.108;2022-07-30T15:03:30;30.10;59.50
6792;DHT22;3433;48.730;9.108;2022-07-30T15:06:17;30.10;61.60
6792;DHT22;3433;48.730;9.108;2022-07-30T15:09:05;29.90;60.80
6792;DHT22;3433;48.730;9.108;2022-07-30T15:11:54;29.60;58.80
6792;DHT22;3433;48.730;9.108;2022-07-30T15:14:41;29.40;61.10
6792;DHT22;3433;48.730;9.108;2022-07-30T15:17:31;29.30;60.40
6792;DHT22;3433;48.730;9.108;2022-07-30T15:20:18;29.20;61.60
6792;DHT22;3433;48.730;9.108;2022-07-30T15:23:06;29.10;60.60
6792;DHT22;3433;48.730;9.108;2022-07-30T15:25:53;29.50;61.10
6792;DHT22;3433;48.730;9.108;2022-07-30T15:28:42;29.30;61.00
6792;DHT22;3433;48.730;9.108;2022-07-30T15:31:29;29.10;61.80
6792;DHT22;3433;48.730;9.108;2022-07-30T15:34:16;29.00;62.20
6792;DHT22;3433;48.730;9.108;2022-07-30T15:37:04;28.80;61.90
6792;DHT22;3433;48.730;9.108;2022-07-30T15:39:51;28.70;60.60
6792;DHT22;3433;48.730;9.108;2022-07-30T15:42:38;29.10;62.00
6792;DHT22;3433;48.730;9.108;2022-07-30T15:45:29;29.40;59.60
6792;DHT22;3433;48.730;9.108;2022-07-30T15:48:16;29.50;60.30
6792;DHT22;3433;48.730;9.108;2022-07-30T15:51:04;29.80;60.70
6792;DHT22;3433;48.730;9.108;2022-07-30T15:53:51;29.50;59.70
6792;DHT22;3433;48.730;9.108;2022-07-30T15:56:38;29.80;61.80
6792;DHT22;3433;48.730;9.108;2022-07-30T15:59:26;29.70;61.40
6792;DHT22;3433;48.730;9.108;2022-07-30T16:02:15;29.40;60.80
6792;DHT22;3433;48.730;9.108;2022-07-30T16:05:02;29.30;61.70
6792;DHT22;3433;48.730;9.108;2022-07-30T16:07:50;29.30;61.40
6792;DHT22;3433;48.730;9.108;2022-07-30T16:10:37;29.10;62.40
6792;DHT22;3433;48.730;9.108;2022-07-30T16:13:25;28.90;61.00
6792;DHT22;3433;48.730;9.108;2022-07-30T16:16:12;28.90;61.50
6792;DHT22;3433;48.730;9.108;2022-07-30T16:19:01;28.80;62.60
6792;DHT22;3433;48.730;9.108;2022-07-30T16:21:48;28.60;61.60
6792;DHT22;3433;48.730;9.108;2022-07-30T16:24:36;28.50;62.10
6792;DHT22;3433;48.730;9.108;2022-07-30T16:27:23;28.40;62.70
6792;DHT22;3433;48.730;9.108;2022-07-30T16:30:11;28.40;63.40
6792;DHT22;3433;48.730;9.108;2022-07-30T16:32:59;28.40;63.60
6792;DHT22;3433;48.730;9.108;2022-07-30T16:35:47;28.30;63.00
6792;DHT22;3433;48.730;9.108;2022-07-30T16:38:35;28.40;63.30
6792;DHT22;3433;48.730;9.108;2022-07-30T16:41:22;28.60;63.50
6792;DHT22;3433;48.730;9.108;2022-07-30T16:44:09;28.80;63.00
6792;DHT22;3433;48.730;9.108;2022-07-30T16:46:57;28.90;62.70
6792;DHT22;3433;48.730;9.108;2022-07-30T16:49:44;28.90;61.50
6792;DHT22;3433;48.730;9.108;2022-07-30T16:52:33;29.10;63.00
6792;DHT22;3433;48.730;9.108;2022-07-30T16:55:20;29.00;62.30
6792;DHT22;3433;48.730;9.108;2022-07-30T16:58:08;29.00;64.10
6792;DHT22;3433;48.730;9.108;2022-07-30T17:00:55;29.10;62.00
6792;DHT22;3433;48.730;9.108;2022-07-30T17:03:42;28.90;62.50
6792;DHT22;3433;48.730;9.108;2022-07-30T17:06:30;28.70;62.30
6792;DHT22;3433;48.730;9.108;2022-07-30T17:09:18;28.60;63.00
6792;DHT22;3433;48.730;9.108;2022-07-30T17:12:06;28.60;62.60
6792;DHT22;3433;48.730;9.108;2022-07-30T17:14:53;28.50;62.70
6792;DHT22;3433;48.730;9.108;2022-07-30T17:17:41;28.50;62.20
6792;DHT22;3433;48.730;9.108;2022-07-30T17:20:28;28.40;61.80
6792;DHT22;3433;48.730;9.108;2022-07-30T17:23:16;28.30;61.50
6792;DHT22;3433;48.730;9.108;2022-07-30T17:26:04;28.30;62.70
6792;DHT22;3433;48.730;9.108;2022-07-30T17:28:52;28.40;62.60
6792;DHT22;3433;48.730;9.108;2022-07-30T17:31:39;28.40;63.00
6792;DHT22;3433;48.730;9.108;2022-07-30T17:34:28;28.30;62.80
6792;DHT22;3433;48.730;9.108;2022-07-30T17:37:16;28.10;62.20
6792;DHT22;3433;48.730;9.108;2022-07-30T17:40:04;28.00;62.60
6792;DHT22;3433;48.730;9.108;2022-07-30T17:42:52;27.90;63.20
6792;DHT22;3433;48.730;9.108;2022-07-30T17:45:41;27.80;62.40
6792;DHT22;3433;48.730;9.108;2022-07-30T17:48:28;27.80;63.10
6792;DHT22;3433;48.730;9.108;2022-07-30T17:51:16;27.70;62.40
6792;DHT22;3433;48.730;9.108;2022-07-30T17:54:03;27.60;63.10
6792;DHT22;3433;48.730;9.108;2022-07-30T17:56:54;27.50;63.40
6792;DHT22;3433;48.730;9.108;2022-07-30T17:59:43;27.50;64.00
6792;DHT22;3433;48.730;9.108;2022-07-30T18:02:30;27.50;64.80
6792;DHT22;3433;48.730;9.108;2022-07-30T18:05:18;27.40;63.50
6792;DHT22;3433;48.730;9.108;2022-07-30T18:08:05;27.30;63.80
6792;DHT22;3433;48.730;9.108;2022-07-30T18:10:52;27.30;63.50
6792;DHT22;3433;48.730;9.108;2022-07-30T18:13:39;27.20;63.70
6792;DHT22;3433;48.730;9.108;2022-07-30T18:16:28;27.10;64.10
6792;DHT22;3433;48.730;9.108;2022-07-30T18:19:15;26.90;61.30
6792;DHT22;3433;48.730;9.108;2022-07-30T18:22:02;26.90;63.00
6792;DHT22;3433;48.730;9.108;2022-07-30T18:24:50;26.90;63.90
6792;DHT22;3433;48.730;9.108;2022-07-30T18:27:37;26.80;64.40
6792;DHT22;3433;48.730;9.108;2022-07-30T18:30:24;26.80;64.60
6792;DHT22;3433;48.730;9.108;2022-07-30T18:33:13;26.80;65.10
6792;DHT22;3433;48.730;9.108;2022-07-30T18:36:00;26.70;65.30